Oldenburg, Mississippi
Current Conditions -  °F | °C
As of 3:15 AM on Monday 22 Dec 2014 (Local Time) from KHEZ Reporting Station
Overcast Overcast  
Wind Chill: 12°   Ceiling: 400
Heat Index: 12°   Visibility: 4mi
Dew Point: 10°   Wind: 3mph
Humidity: 88%   Direction: 170°S
Pressure: 29.88"   Gusts: NA
Location:  31.4774°N, 91.0619°W
Report Text: KHEZ 220915Z AUTO 17003KT 4SM OVC004 12/10 A2988 RMK AO1
Loading
Personal Weather Stations






























Interactive Weather Map New forecast layout! Learn more

10-Day Weather Forecast

Advertisements
Track Severe Weather on mobile